Terminal Aerodrome Forecast
Issued by NWS

Home | Current Version | Previous Version | Text Only | Print | Product List | Glossary On
Versions: 1 2 3 4 5 6 7 8 9 10 11 12 13 14 15 16 17 18 19 20
000
FTUS44 KMAF 281200 AAA
TAFINK
TAF AMD
KINK 281201Z 2812/0112 09008KT 6SM BR OVC006
      TEMPO 2812/2816 -FZDZ
     FM281700 13008KT P6SM OVC011
     FM282000 12009KT P6SM SCT250
     FM010700 12004KT P6SM BKN002=

USA.gov is the U.S. government's official web portal to all federal, state and local government web resources and services.